Oriana — ZCDU9 — position and weather

sailwx.info

Track history (hours):
 
Tides and Currents Weather Stations Pressure Air Temp Water Temp Dewpoint Dewpoint Depression Visibility Wind Speed Wind Dir Waves Ship Positions

Oriana (Bermuda)

Last reported at 2014-Dec-20 19:00 UTC. Time now 2014-Dec-21 01:52 UTC.
Position N 44°12' W 015°36'.

Length 261 m; beam 32.2 m; draft 8.2 m.

Type: Ship. MMSI: 310529000.

Wind from 100 at 21 knots

Waves 0.5 meters (2 feet), 1 second period

Barometer 1036.4 mb
Air temperature 12.5 ° C
Visibility: greater than 5.4 NM
Dewpoint 9.6 ° C
Water temperature 13.0 ° C

Date/timePositionNaut miles runAvg speedWind from/ knotsBaromVisibWave heightAir tempDewpointWater temp
2014-Dec-20 19:00N 44°12' W 015°36'5614.0 100 / 211036.4 5.4 0.512.5 9.613.0
2014-Dec-20 15:00N 44°48' W 014°36'9812.2 050 / 261035.0 0.511.011.013.0
2014-Dec-20 07:00N 46°06' W 013°12'9832.6 050 / 101034.910.8 0.511.1 4.713.0
2014-Dec-20 04:00N 46°42' W 011°00'14814.8 050 / 61034.8 5.4 11.0 4.3
2014-Dec-19 18:00N 48°06' W 008°00'15215.2 300 / 221028.910.8 0.511.5 4.913.0
2014-Dec-19 08:00N 49°24' W 004°42'12413.0 300 / 351017.5 5.4 1.011.510.113.0
2014-Dec-18 22:25N 50°21' W 001°51'1616.9
2014-Dec-18 21:30N 50°26' W 001°28'1516.3
2014-Dec-18 20:33N 50°32' W 001°05'1111.3
2014-Dec-18 19:34N 50°43' W 001°00'1312.5
2014-Dec-18 18:33N 50°49' W 001°18'6 5.3
2014-Dec-18 17:26N 50°53' W 001°24'0 0.0
2014-Dec-18 16:32N 50°53' W 001°24'0 0.0
2014-Dec-18 14:14N 50°53' W 001°24'0 0.0
2014-Dec-18 11:05N 50°53' W 001°24'0 0.0
2014-Dec-18 10:26N 50°53' W 001°24'0 0.0
2014-Dec-18 09:29N 50°53' W 001°24'0 0.0
2014-Dec-18 07:12N 50°53' W 001°24'0 0.4
2014-Dec-18 06:33N 50°53' W 001°24'7 6.6
2014-Dec-18 05:33N 50°48' W 001°18'1312.7
2014-Dec-18 04:33N 50°43' W 000°59'1110.7
2014-Dec-18 03:33N 50°32' W 001°04'  
2014-Dec-15 22:06N 39°05' W 009°46'3413.3
2014-Dec-15 19:33N 38°37' W 009°22'1212.3
2014-Dec-15 18:33N 38°42' W 009°08'0 0.3
2014-Dec-15 17:31N 38°43' W 009°08'0 0.0
2014-Dec-15 16:22N 38°43' W 009°08'0 0.0
2014-Dec-15 15:31N 38°43' W 009°08'0 0.0
2014-Dec-15 14:30N 38°43' W 009°08'0 0.0
2014-Dec-15 13:30N 38°43' W 009°08'0 0.0
2014-Dec-15 12:33N 38°43' W 009°08'0 0.0
2014-Dec-15 11:32N 38°43' W 009°08'0 0.0
2014-Dec-15 10:33N 38°43' W 009°08'10 9.6
2014-Dec-15 09:33N 38°39' W 009°19'1714.7
2014-Dec-15 08:24N 38°24' W 009°28'1517.7
2014-Dec-15 07:31N 38°09' W 009°31'1717.2
2014-Dec-15 06:33N 37°52' W 009°34'1717.1
2014-Dec-15 05:32N 37°35' W 009°38'20116.0
2014-Dec-14 17:00N 34°18' W 010°24'   320 / 501014.310.8 16.0 9.319.0
Track history (hours):
 
Tides and Currents Weather Stations Pressure Air Temp Water Temp Dewpoint Dewpoint Depression Visibility Wind Speed Wind Dir Waves Ship Positions

Oriana (Bermuda)

Last reported at 2014-Dec-20 19:00 UTC. Time now 2014-Dec-21 01:52 UTC.
Position N 44°12' W 015°36'.

Length 261 m; beam 32.2 m; draft 8.2 m.

Type: Ship. MMSI: 310529000.

Wind from 100 at 21 knots

Waves 0.5 meters (2 feet), 1 second period

Barometer 1036.4 mb
Air temperature 12.5 ° C
Visibility: greater than 5.4 NM
Dewpoint 9.6 ° C
Water temperature 13.0 ° C

Date/timePositionNaut miles runAvg speedWind from/ knotsBaromVisibWave heightAir tempDewpointWater temp
2014-Dec-20 19:00N 44°12' W 015°36'5614.0 100 / 211036.4 5.4 0.512.5 9.613.0
2014-Dec-20 15:00N 44°48' W 014°36'9812.2 050 / 261035.0 0.511.011.013.0
2014-Dec-20 07:00N 46°06' W 013°12'9832.6 050 / 101034.910.8 0.511.1 4.713.0
2014-Dec-20 04:00N 46°42' W 011°00'14814.8 050 / 61034.8 5.4 11.0 4.3
2014-Dec-19 18:00N 48°06' W 008°00'15215.2 300 / 221028.910.8 0.511.5 4.913.0
2014-Dec-19 08:00N 49°24' W 004°42'12413.0 300 / 351017.5 5.4 1.011.510.113.0
2014-Dec-18 22:25N 50°21' W 001°51'1616.9
2014-Dec-18 21:30N 50°26' W 001°28'1516.3
2014-Dec-18 20:33N 50°32' W 001°05'1111.3
2014-Dec-18 19:34N 50°43' W 001°00'1312.5
2014-Dec-18 18:33N 50°49' W 001°18'6 5.3
2014-Dec-18 17:26N 50°53' W 001°24'0 0.0
2014-Dec-18 16:32N 50°53' W 001°24'0 0.0
2014-Dec-18 14:14N 50°53' W 001°24'0 0.0
2014-Dec-18 11:05N 50°53' W 001°24'0 0.0
2014-Dec-18 10:26N 50°53' W 001°24'0 0.0
2014-Dec-18 09:29N 50°53' W 001°24'0 0.0
2014-Dec-18 07:12N 50°53' W 001°24'0 0.4
2014-Dec-18 06:33N 50°53' W 001°24'7 6.6
2014-Dec-18 05:33N 50°48' W 001°18'1312.7
2014-Dec-18 04:33N 50°43' W 000°59'1110.7
2014-Dec-18 03:33N 50°32' W 001°04'  
2014-Dec-15 22:06N 39°05' W 009°46'3413.3
2014-Dec-15 19:33N 38°37' W 009°22'1212.3
2014-Dec-15 18:33N 38°42' W 009°08'0 0.3
2014-Dec-15 17:31N 38°43' W 009°08'0 0.0
2014-Dec-15 16:22N 38°43' W 009°08'0 0.0
2014-Dec-15 15:31N 38°43' W 009°08'0 0.0
2014-Dec-15 14:30N 38°43' W 009°08'0 0.0
2014-Dec-15 13:30N 38°43' W 009°08'0 0.0
2014-Dec-15 12:33N 38°43' W 009°08'0 0.0
2014-Dec-15 11:32N 38°43' W 009°08'0 0.0
2014-Dec-15 10:33N 38°43' W 009°08'10 9.6
2014-Dec-15 09:33N 38°39' W 009°19'1714.7
2014-Dec-15 08:24N 38°24' W 009°28'1517.7
2014-Dec-15 07:31N 38°09' W 009°31'1717.2
2014-Dec-15 06:33N 37°52' W 009°34'1717.1
2014-Dec-15 05:32N 37°35' W 009°38'20116.0
2014-Dec-14 17:00N 34°18' W 010°24'   320 / 501014.310.8 16.0 9.319.0

Dump ship's entire track history